Cuivre River (Missouri), Troy (05514500)

StateMissouriLatestPoor (52 cfs)
RiverCuivre RiverRatingObservedEstimated
Updated2020-09-23 0:00 (16 minutes ago)Flood - The river is flooding. Obstacles can be treacherous or deadly. The river should be avoided at this stage for casual trips and definitely for the inexperienced. Trips should be attempted only with protective gear and equipment.Flood(none)2644
Discharge52 cfs (median: 17 cfs)High - The river is high and potentially dangerous, especially for the young and / or inexperienced. Normal stream obstacles are sometimes difficult to navigate. Extended distances can be attempted, but canoe travel may not be advisable.High(none)675
Height(none)Good - Conditions are ideal for a canoe or kayak. Boats typically will drag on fewer than one-quarter of riffles, if at all, and portages are unnecessary or rare. Normal float lengths can be attempted without a problem.Good(none)205
TrendSteady (falling over 24 hours)Low - River is low but can still be floated. Some riffles are okay but most come with significant dragging and might need a portage. Float lengths should be reduced to accommodate low flow, dragging, and portages.Low(none)129
USGSExternal icon USGS Site (External icon Google Maps)Poor - River is too low to float comfortably. Most or all riffles will drag or must be portaged and some obstacles (such as slick shelf rock) cause undue problems. Avoid the river at this stage for casual paddling trips.Poor(none)31

Trending Data

Plot Image

Trips for Cuivre River (Missouri), Troy (05514500)

DateStartEndDistanceConditionDischargeHeightFishingDetails

A total of 0 rows are displayed.

Condition Descriptions

Fishing Conditions

Fish Species

Notes

Classic Trip List

The classic River Trips application is still available for use. It is updated with the new system using a data retrofit. It is no longer maintained. The original River Trips application is no longer updated (as of 1 Dec 2016) but can be checked for errors or for the condition of the data before it was converted to the new system.

Gauge Data Table

ObservationHeightDischargeMaximum
Discharge
Minimum
Discharge
Mean
Discharge
P05P10P20P25P50
(Median)
P75P80P90P95
2020-09-23 00:00 52 72200 (1993) 0 (1964) 1380 2 2 4 6 17 65 80 251 6660
2020-09-22 23:30 5.55 52 12000 (1993) 0 (1964) 446 2 2 4 5 17 65 85 247 1370
2020-09-22 23:00 5.55 52 12000 (1993) 0 (1964) 446 2 2 4 5 17 65 85 247 1370
2020-09-22 22:30 5.55 52 12000 (1993) 0 (1964) 446 2 2 4 5 17 65 85 247 1370
2020-09-22 22:00 5.55 52 12000 (1993) 0 (1964) 446 2 2 4 5 17 65 85 247 1370
2020-09-22 21:30 5.55 52 12000 (1993) 0 (1964) 446 2 2 4 5 17 65 85 247 1370
2020-09-22 21:00 5.55 52 12000 (1993) 0 (1964) 446 2 2 4 5 17 65 85 247 1370
2020-09-22 20:30 5.55 52 12000 (1993) 0 (1964) 446 2 2 4 5 17 65 85 247 1370
2020-09-22 20:00 5.55 52 12000 (1993) 0 (1964) 446 2 2 4 5 17 65 85 247 1370
2020-09-22 19:30 5.55 52 12000 (1993) 0 (1964) 446 2 2 4 5 17 65 85 247 1370
2020-09-22 19:00 5.56 53 12000 (1993) 0 (1964) 446 2 2 4 5 17 65 85 247 1370
2020-09-22 18:30 5.56 53 12000 (1993) 0 (1964) 446 2 2 4 5 17 65 85 247 1370
2020-09-22 18:00 5.56 53 12000 (1993) 0 (1964) 446 2 2 4 5 17 65 85 247 1370
2020-09-22 17:30 5.56 53 12000 (1993) 0 (1964) 446 2 2 4 5 17 65 85 247 1370
2020-09-22 17:00 5.56 53 12000 (1993) 0 (1964) 446 2 2 4 5 17 65 85 247 1370
2020-09-22 16:30 5.56 53 12000 (1993) 0 (1964) 446 2 2 4 5 17 65 85 247 1370
2020-09-22 16:00 5.56 53 12000 (1993) 0 (1964) 446 2 2 4 5 17 65 85 247 1370
2020-09-22 15:30 5.56 53 12000 (1993) 0 (1964) 446 2 2 4 5 17 65 85 247 1370
2020-09-22 15:00 5.51 47 12000 (1993) 0 (1964) 446 2 2 4 5 17 65 85 247 1370
2020-09-22 14:30 5.49 45 12000 (1993) 0 (1964) 446 2 2 4 5 17 65 85 247 1370
2020-09-22 14:00 5.56 53 12000 (1993) 0 (1964) 446 2 2 4 5 17 65 85 247 1370
2020-09-22 13:30 5.55 52 12000 (1993) 0 (1964) 446 2 2 4 5 17 65 85 247 1370
2020-09-22 13:00 5.56 53 12000 (1993) 0 (1964) 446 2 2 4 5 17 65 85 247 1370
2020-09-22 12:30 5.57 54 12000 (1993) 0 (1964) 446 2 2 4 5 17 65 85 247 1370
2020-09-22 12:00 5.57 54 12000 (1993) 0 (1964) 446 2 2 4 5 17 65 85 247 1370
2020-09-22 11:30 5.57 54 12000 (1993) 0 (1964) 446 2 2 4 5 17 65 85 247 1370
2020-09-22 11:00 5.56 53 12000 (1993) 0 (1964) 446 2 2 4 5 17 65 85 247 1370
2020-09-22 10:30 5.56 53 12000 (1993) 0 (1964) 446 2 2 4 5 17 65 85 247 1370
2020-09-22 10:00 5.53 49 12000 (1993) 0 (1964) 446 2 2 4 5 17 65 85 247 1370
2020-09-22 09:30 5.57 54 12000 (1993) 0 (1964) 446 2 2 4 5 17 65 85 247 1370
2020-09-22 09:00 5.57 54 12000 (1993) 0 (1964) 446 2 2 4 5 17 65 85 247 1370
2020-09-22 08:30 5.57 54 12000 (1993) 0 (1964) 446 2 2 4 5 17 65 85 247 1370
2020-09-22 08:00 5.57 54 12000 (1993) 0 (1964) 446 2 2 4 5 17 65 85 247 1370
2020-09-22 07:30 5.58 55 12000 (1993) 0 (1964) 446 2 2 4 5 17 65 85 247 1370
2020-09-22 07:00 5.58 55 12000 (1993) 0 (1964) 446 2 2 4 5 17 65 85 247 1370
2020-09-22 06:30 5.58 55 12000 (1993) 0 (1964) 446 2 2 4 5 17 65 85 247 1370
2020-09-22 06:00 5.58 55 12000 (1993) 0 (1964) 446 2 2 4 5 17 65 85 247 1370
2020-09-22 05:30 5.58 55 12000 (1993) 0 (1964) 446 2 2 4 5 17 65 85 247 1370
2020-09-22 05:00 5.58 55 12000 (1993) 0 (1964) 446 2 2 4 5 17 65 85 247 1370
2020-09-22 04:30 5.58 55 12000 (1993) 0 (1964) 446 2 2 4 5 17 65 85 247 1370
2020-09-22 04:00 5.58 55 12000 (1993) 0 (1964) 446 2 2 4 5 17 65 85 247 1370
2020-09-22 03:30 5.58 55 12000 (1993) 0 (1964) 446 2 2 4 5 17 65 85 247 1370
2020-09-22 03:00 5.58 55 12000 (1993) 0 (1964) 446 2 2 4 5 17 65 85 247 1370
2020-09-22 02:30 5.58 55 12000 (1993) 0 (1964) 446 2 2 4 5 17 65 85 247 1370
2020-09-22 02:00 5.59 56 12000 (1993) 0 (1964) 446 2 2 4 5 17 65 85 247 1370
2020-09-22 01:30 5.58 55 12000 (1993) 0 (1964) 446 2 2 4 5 17 65 85 247 1370
2020-09-22 01:00 5.59 56 12000 (1993) 0 (1964) 446 2 2 4 5 17 65 85 247 1370
2020-09-22 00:30 5.59 56 12000 (1993) 0 (1964) 446 2 2 4 5 17 65 85 247 1370
2020-09-22 00:00 5.59 56 12000 (1993) 0 (1964) 446 2 2 4 5 17 65 85 247 1370
2020-09-21 23:30 5.59 56 5260 (2010) 0 (1964) 183 2 3 4 6 17 80 100 274 797
2020-09-21 23:00 5.59 56 5260 (2010) 0 (1964) 183 2 3 4 6 17 80 100 274 797
2020-09-21 22:30 5.59 56 5260 (2010) 0 (1964) 183 2 3 4 6 17 80 100 274 797
2020-09-21 22:00 5.59 56 5260 (2010) 0 (1964) 183 2 3 4 6 17 80 100 274 797
2020-09-21 21:30 5.59 56 5260 (2010) 0 (1964) 183 2 3 4 6 17 80 100 274 797
2020-09-21 21:00 5.59 56 5260 (2010) 0 (1964) 183 2 3 4 6 17 80 100 274 797
2020-09-21 20:30 5.59 56 5260 (2010) 0 (1964) 183 2 3 4 6 17 80 100 274 797
2020-09-21 20:00 5.59 56 5260 (2010) 0 (1964) 183 2 3 4 6 17 80 100 274 797
2020-09-21 19:30 5.60 57 5260 (2010) 0 (1964) 183 2 3 4 6 17 80 100 274 797
2020-09-21 19:00 5.59 56 5260 (2010) 0 (1964) 183 2 3 4 6 17 80 100 274 797
2020-09-21 18:30 5.60 57 5260 (2010) 0 (1964) 183 2 3 4 6 17 80 100 274 797
2020-09-21 18:00 5.60 57 5260 (2010) 0 (1964) 183 2 3 4 6 17 80 100 274 797
2020-09-21 17:30 5.59 56 5260 (2010) 0 (1964) 183 2 3 4 6 17 80 100 274 797
2020-09-21 17:00 5.60 57 5260 (2010) 0 (1964) 183 2 3 4 6 17 80 100 274 797
2020-09-21 16:30 5.60 57 5260 (2010) 0 (1964) 183 2 3 4 6 17 80 100 274 797
2020-09-21 16:00 5.58 55 5260 (2010) 0 (1964) 183 2 3 4 6 17 80 100 274 797
2020-09-21 15:30 5.55 52 5260 (2010) 0 (1964) 183 2 3 4 6 17 80 100 274 797
2020-09-21 15:00 5.54 50 5260 (2010) 0 (1964) 183 2 3 4 6 17 80 100 274 797
2020-09-21 14:30 5.59 56 5260 (2010) 0 (1964) 183 2 3 4 6 17 80 100 274 797
2020-09-21 14:00 5.61 59 5260 (2010) 0 (1964) 183 2 3 4 6 17 80 100 274 797
2020-09-21 13:30 5.60 57 5260 (2010) 0 (1964) 183 2 3 4 6 17 80 100 274 797
2020-09-21 13:00 5.61 59 5260 (2010) 0 (1964) 183 2 3 4 6 17 80 100 274 797
2020-09-21 12:30 5.61 59 5260 (2010) 0 (1964) 183 2 3 4 6 17 80 100 274 797
2020-09-21 12:00 5.61 59 5260 (2010) 0 (1964) 183 2 3 4 6 17 80 100 274 797
2020-09-21 11:30 5.61 59 5260 (2010) 0 (1964) 183 2 3 4 6 17 80 100 274 797
2020-09-21 11:00 5.61 59 5260 (2010) 0 (1964) 183 2 3 4 6 17 80 100 274 797
2020-09-21 10:30 5.56 53 5260 (2010) 0 (1964) 183 2 3 4 6 17 80 100 274 797
2020-09-21 10:00 5.61 59 5260 (2010) 0 (1964) 183 2 3 4 6 17 80 100 274 797
2020-09-21 09:30 5.62 60 5260 (2010) 0 (1964) 183 2 3 4 6 17 80 100 274 797
2020-09-21 09:00 5.62 60 5260 (2010) 0 (1964) 183 2 3 4 6 17 80 100 274 797
2020-09-21 08:30 5.61 59 5260 (2010) 0 (1964) 183 2 3 4 6 17 80 100 274 797
2020-09-21 08:00 5.62 60 5260 (2010) 0 (1964) 183 2 3 4 6 17 80 100 274 797
2020-09-21 07:30 5.63 61 5260 (2010) 0 (1964) 183 2 3 4 6 17 80 100 274 797
2020-09-21 07:00 5.63 61 5260 (2010) 0 (1964) 183 2 3 4 6 17 80 100 274 797
2020-09-21 06:30 5.63 61 5260 (2010) 0 (1964) 183 2 3 4 6 17 80 100 274 797
2020-09-21 06:00 5.63 61 5260 (2010) 0 (1964) 183 2 3 4 6 17 80 100 274 797
2020-09-21 05:30 5.63 61 5260 (2010) 0 (1964) 183 2 3 4 6 17 80 100 274 797
2020-09-21 05:00 5.63 61 5260 (2010) 0 (1964) 183 2 3 4 6 17 80 100 274 797
2020-09-21 04:30 5.63 61 5260 (2010) 0 (1964) 183 2 3 4 6 17 80 100 274 797
2020-09-21 04:00 5.63 61 5260 (2010) 0 (1964) 183 2 3 4 6 17 80 100 274 797
2020-09-21 03:30 5.64 62 5260 (2010) 0 (1964) 183 2 3 4 6 17 80 100 274 797
2020-09-21 03:00 5.64 62 5260 (2010) 0 (1964) 183 2 3 4 6 17 80 100 274 797
2020-09-21 02:30 5.64 62 5260 (2010) 0 (1964) 183 2 3 4 6 17 80 100 274 797
2020-09-21 02:00 5.64 62 5260 (2010) 0 (1964) 183 2 3 4 6 17 80 100 274 797
2020-09-21 01:30 5.64 62 5260 (2010) 0 (1964) 183 2 3 4 6 17 80 100 274 797
2020-09-21 01:00 5.64 62 5260 (2010) 0 (1964) 183 2 3 4 6 17 80 100 274 797
2020-09-21 00:30 5.64 62 5260 (2010) 0 (1964) 183 2 3 4 6 17 80 100 274 797
2020-09-21 00:00 5.64 62 5260 (2010) 0 (1964) 183 2 3 4 6 17 80 100 274 797
2020-09-20 23:30 5.64 62 20000 (2010) 0 (1964) 455 2 3 4 5 17 70 106 295 757
2020-09-20 23:00 5.64 62 20000 (2010) 0 (1964) 455 2 3 4 5 17 70 106 295 757
2020-09-20 22:30 5.64 62 20000 (2010) 0 (1964) 455 2 3 4 5 17 70 106 295 757
2020-09-20 22:00 5.64 62 20000 (2010) 0 (1964) 455 2 3 4 5 17 70 106 295 757
2020-09-20 21:30 5.65 64 20000 (2010) 0 (1964) 455 2 3 4 5 17 70 106 295 757
2020-09-20 21:00 5.65 64 20000 (2010) 0 (1964) 455 2 3 4 5 17 70 106 295 757
2020-09-20 20:30 5.65 64 20000 (2010) 0 (1964) 455 2 3 4 5 17 70 106 295 757
2020-09-20 20:00 5.65 64 20000 (2010) 0 (1964) 455 2 3 4 5 17 70 106 295 757
2020-09-20 19:30 5.65 64 20000 (2010) 0 (1964) 455 2 3 4 5 17 70 106 295 757
2020-09-20 19:00 5.65 64 20000 (2010) 0 (1964) 455 2 3 4 5 17 70 106 295 757
2020-09-20 18:30 5.65 64 20000 (2010) 0 (1964) 455 2 3 4 5 17 70 106 295 757
2020-09-20 18:00 5.65 64 20000 (2010) 0 (1964) 455 2 3 4 5 17 70 106 295 757
2020-09-20 17:30 5.60 57 20000 (2010) 0 (1964) 455 2 3 4 5 17 70 106 295 757
2020-09-20 17:00 5.63 61 20000 (2010) 0 (1964) 455 2 3 4 5 17 70 106 295 757
2020-09-20 16:30 5.60 57 20000 (2010) 0 (1964) 455 2 3 4 5 17 70 106 295 757
2020-09-20 16:00 5.59 56 20000 (2010) 0 (1964) 455 2 3 4 5 17 70 106 295 757
2020-09-20 15:30 5.61 59 20000 (2010) 0 (1964) 455 2 3 4 5 17 70 106 295 757
2020-09-20 15:00 5.59 56 20000 (2010) 0 (1964) 455 2 3 4 5 17 70 106 295 757
2020-09-20 14:30 5.60 57 20000 (2010) 0 (1964) 455 2 3 4 5 17 70 106 295 757
2020-09-20 14:00 5.66 65 20000 (2010) 0 (1964) 455 2 3 4 5 17 70 106 295 757
2020-09-20 13:30 5.61 59 20000 (2010) 0 (1964) 455 2 3 4 5 17 70 106 295 757
2020-09-20 13:00 5.57 54 20000 (2010) 0 (1964) 455 2 3 4 5 17 70 106 295 757
2020-09-20 12:30 5.62 60 20000 (2010) 0 (1964) 455 2 3 4 5 17 70 106 295 757
2020-09-20 12:00 5.62 60 20000 (2010) 0 (1964) 455 2 3 4 5 17 70 106 295 757
2020-09-20 11:30 5.67 66 20000 (2010) 0 (1964) 455 2 3 4 5 17 70 106 295 757
2020-09-20 11:00 5.65 64 20000 (2010) 0 (1964) 455 2 3 4 5 17 70 106 295 757
2020-09-20 10:30 5.68 68 20000 (2010) 0 (1964) 455 2 3 4 5 17 70 106 295 757
2020-09-20 10:00 5.68 68 20000 (2010) 0 (1964) 455 2 3 4 5 17 70 106 295 757
2020-09-20 09:30 5.68 68 20000 (2010) 0 (1964) 455 2 3 4 5 17 70 106 295 757
2020-09-20 09:00 5.68 68 20000 (2010) 0 (1964) 455 2 3 4 5 17 70 106 295 757
2020-09-20 08:30 5.69 69 20000 (2010) 0 (1964) 455 2 3 4 5 17 70 106 295 757
2020-09-20 08:00 5.69 69 20000 (2010) 0 (1964) 455 2 3 4 5 17 70 106 295 757
2020-09-20 07:30 5.69 69 20000 (2010) 0 (1964) 455 2 3 4 5 17 70 106 295 757
2020-09-20 07:00 5.69 69 20000 (2010) 0 (1964) 455 2 3 4 5 17 70 106 295 757
2020-09-20 06:30 5.69 69 20000 (2010) 0 (1964) 455 2 3 4 5 17 70 106 295 757
2020-09-20 06:00 5.69 69 20000 (2010) 0 (1964) 455 2 3 4 5 17 70 106 295 757
2020-09-20 05:30 5.70 70 20000 (2010) 0 (1964) 455 2 3 4 5 17 70 106 295 757
2020-09-20 05:00 5.70 70 20000 (2010) 0 (1964) 455 2 3 4 5 17 70 106 295 757
2020-09-20 04:30 5.70 70 20000 (2010) 0 (1964) 455 2 3 4 5 17 70 106 295 757
2020-09-20 04:00 5.70 70 20000 (2010) 0 (1964) 455 2 3 4 5 17 70 106 295 757
2020-09-20 03:30 5.70 70 20000 (2010) 0 (1964) 455 2 3 4 5 17 70 106 295 757
2020-09-20 03:00 5.70 70 20000 (2010) 0 (1964) 455 2 3 4 5 17 70 106 295 757
2020-09-20 02:30 5.70 70 20000 (2010) 0 (1964) 455 2 3 4 5 17 70 106 295 757
2020-09-20 02:00 5.70 70 20000 (2010) 0 (1964) 455 2 3 4 5 17 70 106 295 757
2020-09-20 01:30 5.71 72 20000 (2010) 0 (1964) 455 2 3 4 5 17 70 106 295 757
2020-09-20 01:00 5.71 72 20000 (2010) 0 (1964) 455 2 3 4 5 17 70 106 295 757
2020-09-20 00:30 5.71 72 20000 (2010) 0 (1964) 455 2 3 4 5 17 70 106 295 757
2020-09-20 00:00 5.71 72 20000 (2010) 0 (1964) 455 2 3 4 5 17 70 106 295 757
2020-09-19 23:30 5.71 72 5960 (2010) 0 (1954) 197 2 3 4 5 17 72 136 482 1130
2020-09-19 23:00 5.71 72 5960 (2010) 0 (1954) 197 2 3 4 5 17 72 136 482 1130
2020-09-19 22:30 5.71 72 5960 (2010) 0 (1954) 197 2 3 4 5 17 72 136 482 1130
2020-09-19 22:00 72 5960 (2010) 0 (1954) 197 2 3 4 5 17 72 136 482 1130
2020-09-19 21:30 5.71 72 5960 (2010) 0 (1954) 197 2 3 4 5 17 72 136 482 1130
2020-09-19 21:00 5.72 73 5960 (2010) 0 (1954) 197 2 3 4 5 17 72 136 482 1130
2020-09-19 20:30 5.72 73 5960 (2010) 0 (1954) 197 2 3 4 5 17 72 136 482 1130
2020-09-19 20:00 5.72 73 5960 (2010) 0 (1954) 197 2 3 4 5 17 72 136 482 1130
2020-09-19 19:30 5.72 73 5960 (2010) 0 (1954) 197 2 3 4 5 17 72 136 482 1130
2020-09-19 19:00 5.72 73 5960 (2010) 0 (1954) 197 2 3 4 5 17 72 136 482 1130
2020-09-19 18:30 5.72 73 5960 (2010) 0 (1954) 197 2 3 4 5 17 72 136 482 1130
2020-09-19 18:00 5.73 75 5960 (2010) 0 (1954) 197 2 3 4 5 17 72 136 482 1130
2020-09-19 17:30 5.70 70 5960 (2010) 0 (1954) 197 2 3 4 5 17 72 136 482 1130
2020-09-19 17:00 5.66 65 5960 (2010) 0 (1954) 197 2 3 4 5 17 72 136 482 1130
2020-09-19 16:30 5.68 68 5960 (2010) 0 (1954) 197 2 3 4 5 17 72 136 482 1130
2020-09-19 16:00 5.73 75 5960 (2010) 0 (1954) 197 2 3 4 5 17 72 136 482 1130
2020-09-19 15:30 5.70 70 5960 (2010) 0 (1954) 197 2 3 4 5 17 72 136 482 1130
2020-09-19 15:00 5.67 66 5960 (2010) 0 (1954) 197 2 3 4 5 17 72 136 482 1130
2020-09-19 14:30 5.69 69 5960 (2010) 0 (1954) 197 2 3 4 5 17 72 136 482 1130
2020-09-19 14:00 5.69 69 5960 (2010) 0 (1954) 197 2 3 4 5 17 72 136 482 1130
2020-09-19 13:30 5.68 68 5960 (2010) 0 (1954) 197 2 3 4 5 17 72 136 482 1130
2020-09-19 13:00 5.70 70 5960 (2010) 0 (1954) 197 2 3 4 5 17 72 136 482 1130
2020-09-19 12:30 5.71 72 5960 (2010) 0 (1954) 197 2 3 4 5 17 72 136 482 1130
2020-09-19 12:00 5.74 76 5960 (2010) 0 (1954) 197 2 3 4 5 17 72 136 482 1130
2020-09-19 11:30 5.75 78 5960 (2010) 0 (1954) 197 2 3 4 5 17 72 136 482 1130
2020-09-19 11:00 5.71 72 5960 (2010) 0 (1954) 197 2 3 4 5 17 72 136 482 1130
2020-09-19 10:30 5.72 73 5960 (2010) 0 (1954) 197 2 3 4 5 17 72 136 482 1130
2020-09-19 10:00 5.75 78 5960 (2010) 0 (1954) 197 2 3 4 5 17 72 136 482 1130
2020-09-19 09:30 5.76 79 5960 (2010) 0 (1954) 197 2 3 4 5 17 72 136 482 1130
2020-09-19 09:00 5.76 79 5960 (2010) 0 (1954) 197 2 3 4 5 17 72 136 482 1130
2020-09-19 08:30 5.76 79 5960 (2010) 0 (1954) 197 2 3 4 5 17 72 136 482 1130
2020-09-19 08:00 5.77 81 5960 (2010) 0 (1954) 197 2 3 4 5 17 72 136 482 1130
2020-09-19 07:30 5.77 81 5960 (2010) 0 (1954) 197 2 3 4 5 17 72 136 482 1130
2020-09-19 07:00 5.77 81 5960 (2010) 0 (1954) 197 2 3 4 5 17 72 136 482 1130
2020-09-19 06:30 5.77 81 5960 (2010) 0 (1954) 197 2 3 4 5 17 72 136 482 1130
2020-09-19 06:00 5.78 82 5960 (2010) 0 (1954) 197 2 3 4 5 17 72 136 482 1130
2020-09-19 05:30 5.78 82 5960 (2010) 0 (1954) 197 2 3 4 5 17 72 136 482 1130
2020-09-19 05:00 5.78 82 5960 (2010) 0 (1954) 197 2 3 4 5 17 72 136 482 1130
2020-09-19 04:30 5.78 82 5960 (2010) 0 (1954) 197 2 3 4 5 17 72 136 482 1130
2020-09-19 04:00 5.78 82 5960 (2010) 0 (1954) 197 2 3 4 5 17 72 136 482 1130
2020-09-19 03:30 5.78 82 5960 (2010) 0 (1954) 197 2 3 4 5 17 72 136 482 1130
2020-09-19 03:00 5.78 82 5960 (2010) 0 (1954) 197 2 3 4 5 17 72 136 482 1130
2020-09-19 02:30 5.79 84 5960 (2010) 0 (1954) 197 2 3 4 5 17 72 136 482 1130
2020-09-19 02:00 5.79 84 5960 (2010) 0 (1954) 197 2 3 4 5 17 72 136 482 1130
2020-09-19 01:30 5.79 84 5960 (2010) 0 (1954) 197 2 3 4 5 17 72 136 482 1130
2020-09-19 01:00 5.79 84 5960 (2010) 0 (1954) 197 2 3 4 5 17 72 136 482 1130
2020-09-19 00:30 5.79 84 5960 (2010) 0 (1954) 197 2 3 4 5 17 72 136 482 1130
2020-09-19 00:00 5.79 84 5960 (2010) 0 (1954) 197 2 3 4 5 17 72 136 482 1130
2020-09-18 23:30 5.80 86 8400 (1982) 0 (1954) 269 2 2 5 5 18 65 136 426 1420
2020-09-18 23:00 5.80 86 8400 (1982) 0 (1954) 269 2 2 5 5 18 65 136 426 1420
2020-09-18 22:30 5.80 86 8400 (1982) 0 (1954) 269 2 2 5 5 18 65 136 426 1420
2020-09-18 22:00 5.80 86 8400 (1982) 0 (1954) 269 2 2 5 5 18 65 136 426 1420
2020-09-18 21:30 5.80 86 8400 (1982) 0 (1954) 269 2 2 5 5 18 65 136 426 1420
2020-09-18 21:00 5.81 87 8400 (1982) 0 (1954) 269 2 2 5 5 18 65 136 426 1420
2020-09-18 20:30 5.81 87 8400 (1982) 0 (1954) 269 2 2 5 5 18 65 136 426 1420
2020-09-18 20:00 5.81 87 8400 (1982) 0 (1954) 269 2 2 5 5 18 65 136 426 1420
2020-09-18 19:30 5.81 87 8400 (1982) 0 (1954) 269 2 2 5 5 18 65 136 426 1420
2020-09-18 19:00 5.82 89 8400 (1982) 0 (1954) 269 2 2 5 5 18 65 136 426 1420
2020-09-18 18:30 5.80 86 8400 (1982) 0 (1954) 269 2 2 5 5 18 65 136 426 1420
2020-09-18 18:00 5.76 79 8400 (1982) 0 (1954) 269 2 2 5 5 18 65 136 426 1420
2020-09-18 17:30 5.76 79 8400 (1982) 0 (1954) 269 2 2 5 5 18 65 136 426 1420
2020-09-18 17:00 5.76 79 8400 (1982) 0 (1954) 269 2 2 5 5 18 65 136 426 1420
2020-09-18 16:30 5.76 79 8400 (1982) 0 (1954) 269 2 2 5 5 18 65 136 426 1420
2020-09-18 16:00 5.76 79 8400 (1982) 0 (1954) 269 2 2 5 5 18 65 136 426 1420
2020-09-18 15:30 5.78 82 8400 (1982) 0 (1954) 269 2 2 5 5 18 65 136 426 1420
2020-09-18 15:00 5.75 78 8400 (1982) 0 (1954) 269 2 2 5 5 18 65 136 426 1420
2020-09-18 14:30 5.76 79 8400 (1982) 0 (1954) 269 2 2 5 5 18 65 136 426 1420
2020-09-18 14:00 5.78 82 8400 (1982) 0 (1954) 269 2 2 5 5 18 65 136 426 1420
2020-09-18 13:30 5.77 81 8400 (1982) 0 (1954) 269 2 2 5 5 18 65 136 426 1420
2020-09-18 13:00 5.79 84 8400 (1982) 0 (1954) 269 2 2 5 5 18 65 136 426 1420
2020-09-18 12:30 5.78 82 8400 (1982) 0 (1954) 269 2 2 5 5 18 65 136 426 1420
2020-09-18 12:00 5.78 82 8400 (1982) 0 (1954) 269 2 2 5 5 18 65 136 426 1420
2020-09-18 11:30 5.79 84 8400 (1982) 0 (1954) 269 2 2 5 5 18 65 136 426 1420
2020-09-18 11:00 5.77 81 8400 (1982) 0 (1954) 269 2 2 5 5 18 65 136 426 1420
2020-09-18 10:30 5.80 86 8400 (1982) 0 (1954) 269 2 2 5 5 18 65 136 426 1420
2020-09-18 10:00 5.81 87 8400 (1982) 0 (1954) 269 2 2 5 5 18 65 136 426 1420
2020-09-18 09:30 5.81 87 8400 (1982) 0 (1954) 269 2 2 5 5 18 65 136 426 1420
2020-09-18 09:00 5.87 98 8400 (1982) 0 (1954) 269 2 2 5 5 18 65 136 426 1420
2020-09-18 08:30 5.87 98 8400 (1982) 0 (1954) 269 2 2 5 5 18 65 136 426 1420
2020-09-18 08:00 5.88 99 8400 (1982) 0 (1954) 269 2 2 5 5 18 65 136 426 1420
2020-09-18 07:30 5.88 99 8400 (1982) 0 (1954) 269 2 2 5 5 18 65 136 426 1420
2020-09-18 07:00 5.88 99 8400 (1982) 0 (1954) 269 2 2 5 5 18 65 136 426 1420
2020-09-18 06:30 5.89 101 8400 (1982) 0 (1954) 269 2 2 5 5 18 65 136 426 1420
2020-09-18 06:00 5.89 101 8400 (1982) 0 (1954) 269 2 2 5 5 18 65 136 426 1420
2020-09-18 05:30 5.89 101 8400 (1982) 0 (1954) 269 2 2 5 5 18 65 136 426 1420
2020-09-18 05:00 5.89 101 8400 (1982) 0 (1954) 269 2 2 5 5 18 65 136 426 1420
2020-09-18 04:30 5.89 101 8400 (1982) 0 (1954) 269 2 2 5 5 18 65 136 426 1420
2020-09-18 04:00 5.90 103 8400 (1982) 0 (1954) 269 2 2 5 5 18 65 136 426 1420
2020-09-18 03:30 5.90 103 8400 (1982) 0 (1954) 269 2 2 5 5 18 65 136 426 1420
2020-09-18 03:00 5.90 103 8400 (1982) 0 (1954) 269 2 2 5 5 18 65 136 426 1420
2020-09-18 02:30 5.90 103 8400 (1982) 0 (1954) 269 2 2 5 5 18 65 136 426 1420
2020-09-18 02:00 5.91 105 8400 (1982) 0 (1954) 269 2 2 5 5 18 65 136 426 1420
2020-09-18 01:30 5.91 105 8400 (1982) 0 (1954) 269 2 2 5 5 18 65 136 426 1420
2020-09-18 01:00 5.91 105 8400 (1982) 0 (1954) 269 2 2 5 5 18 65 136 426 1420
2020-09-18 00:30 5.92 107 8400 (1982) 0 (1954) 269 2 2 5 5 18 65 136 426 1420
2020-09-18 00:00 5.92 107 8400 (1982) 0 (1954) 269 2 2 5 5 18 65 136 426 1420
2020-09-17 23:30 5.92 107 10700 (1965) 0 (1954) 377 2 2 5 6 18 82 170 1020 1640
2020-09-17 23:00 5.92 107 10700 (1965) 0 (1954) 377 2 2 5 6 18 82 170 1020 1640
2020-09-17 22:30 5.93 109 10700 (1965) 0 (1954) 377 2 2 5 6 18 82 170 1020 1640
2020-09-17 22:00 5.93 109 10700 (1965) 0 (1954) 377 2 2 5 6 18 82 170 1020 1640
2020-09-17 21:30 5.93 109 10700 (1965) 0 (1954) 377 2 2 5 6 18 82 170 1020 1640
2020-09-17 21:00 5.94 111 10700 (1965) 0 (1954) 377 2 2 5 6 18 82 170 1020 1640
2020-09-17 20:30 5.94 111 10700 (1965) 0 (1954) 377 2 2 5 6 18 82 170 1020 1640
2020-09-17 20:00 5.94 111 10700 (1965) 0 (1954) 377 2 2 5 6 18 82 170 1020 1640
2020-09-17 19:30 5.94 111 10700 (1965) 0 (1954) 377 2 2 5 6 18 82 170 1020 1640
2020-09-17 19:00 5.95 113 10700 (1965) 0 (1954) 377 2 2 5 6 18 82 170 1020 1640
2020-09-17 18:30 5.95 113 10700 (1965) 0 (1954) 377 2 2 5 6 18 82 170 1020 1640
2020-09-17 18:00 5.95 113 10700 (1965) 0 (1954) 377 2 2 5 6 18 82 170 1020 1640
2020-09-17 17:30 5.96 115 10700 (1965) 0 (1954) 377 2 2 5 6 18 82 170 1020 1640
2020-09-17 17:00 5.96 115 10700 (1965) 0 (1954) 377 2 2 5 6 18 82 170 1020 1640
2020-09-17 16:30 5.92 107 10700 (1965) 0 (1954) 377 2 2 5 6 18 82 170 1020 1640
2020-09-17 16:00 5.93 109 10700 (1965) 0 (1954) 377 2 2 5 6 18 82 170 1020 1640
2020-09-17 15:30 5.95 113 10700 (1965) 0 (1954) 377 2 2 5 6 18 82 170 1020 1640
2020-09-17 15:00 5.94 111 10700 (1965) 0 (1954) 377 2 2 5 6 18 82 170 1020 1640
2020-09-17 14:30 5.92 107 10700 (1965) 0 (1954) 377 2 2 5 6 18 82 170 1020 1640
2020-09-17 14:00 5.98 119 10700 (1965) 0 (1954) 377 2 2 5 6 18 82 170 1020 1640
2020-09-17 13:30 5.95 113 10700 (1965) 0 (1954) 377 2 2 5 6 18 82 170 1020 1640
2020-09-17 13:00 5.94 111 10700 (1965) 0 (1954) 377 2 2 5 6 18 82 170 1020 1640
2020-09-17 12:30 5.99 121 10700 (1965) 0 (1954) 377 2 2 5 6 18 82 170 1020 1640
2020-09-17 12:00 6.00 123 10700 (1965) 0 (1954) 377 2 2 5 6 18 82 170 1020 1640
2020-09-17 11:30 5.98 119 10700 (1965) 0 (1954) 377 2 2 5 6 18 82 170 1020 1640
2020-09-17 11:00 5.96 115 10700 (1965) 0 (1954) 377 2 2 5 6 18 82 170 1020 1640
2020-09-17 10:30 6.00 123 10700 (1965) 0 (1954) 377 2 2 5 6 18 82 170 1020 1640
2020-09-17 10:00 5.96 115 10700 (1965) 0 (1954) 377 2 2 5 6 18 82 170 1020 1640
2020-09-17 09:30 6.02 127 10700 (1965) 0 (1954) 377 2 2 5 6 18 82 170 1020 1640
2020-09-17 09:00 6.01 125 10700 (1965) 0 (1954) 377 2 2 5 6 18 82 170 1020 1640
2020-09-17 08:30 6.02 127 10700 (1965) 0 (1954) 377 2 2 5 6 18 82 170 1020 1640
2020-09-17 08:00 6.02 127 10700 (1965) 0 (1954) 377 2 2 5 6 18 82 170 1020 1640
2020-09-17 07:30 6.02 127 10700 (1965) 0 (1954) 377 2 2 5 6 18 82 170 1020 1640
2020-09-17 07:00 6.03 129 10700 (1965) 0 (1954) 377 2 2 5 6 18 82 170 1020 1640
2020-09-17 06:30 6.03 129 10700 (1965) 0 (1954) 377 2 2 5 6 18 82 170 1020 1640
2020-09-17 06:00 6.03 129 10700 (1965) 0 (1954) 377 2 2 5 6 18 82 170 1020 1640
2020-09-17 05:30 6.03 129 10700 (1965) 0 (1954) 377 2 2 5 6 18 82 170 1020 1640
2020-09-17 05:00 6.04 132 10700 (1965) 0 (1954) 377 2 2 5 6 18 82 170 1020 1640
2020-09-17 04:30 6.05 134 10700 (1965) 0 (1954) 377 2 2 5 6 18 82 170 1020 1640
2020-09-17 04:00 6.05 134 10700 (1965) 0 (1954) 377 2 2 5 6 18 82 170 1020 1640
2020-09-17 03:30 6.05 134 10700 (1965) 0 (1954) 377 2 2 5 6 18 82 170 1020 1640
2020-09-17 03:00 6.06 136 10700 (1965) 0 (1954) 377 2 2 5 6 18 82 170 1020 1640
2020-09-17 02:30 6.06 136 10700 (1965) 0 (1954) 377 2 2 5 6 18 82 170 1020 1640
2020-09-17 02:00 6.07 138 10700 (1965) 0 (1954) 377 2 2 5 6 18 82 170 1020 1640
2020-09-17 01:30 6.07 138 10700 (1965) 0 (1954) 377 2 2 5 6 18 82 170 1020 1640
2020-09-17 01:00 6.07 138 10700 (1965) 0 (1954) 377 2 2 5 6 18 82 170 1020 1640
2020-09-17 00:30 6.08 141 10700 (1965) 0 (1954) 377 2 2 5 6 18 82 170 1020 1640
2020-09-17 00:00 6.08 141 10700 (1965) 0 (1954) 377 2 2 5 6 18 82 170 1020 1640
2020-09-16 23:30 6.09 143 10100 (2008) 0 (1954) 438 2 2 5 6 18 91 155 931 2430
2020-09-16 23:00 6.09 143 10100 (2008) 0 (1954) 438 2 2 5 6 18 91 155 931 2430
2020-09-16 22:30 6.10 146 10100 (2008) 0 (1954) 438 2 2 5 6 18 91 155 931 2430
2020-09-16 22:00 6.10 146 10100 (2008) 0 (1954) 438 2 2 5 6 18 91 155 931 2430
2020-09-16 21:30 6.10 146 10100 (2008) 0 (1954) 438 2 2 5 6 18 91 155 931 2430
2020-09-16 21:00 6.11 148 10100 (2008) 0 (1954) 438 2 2 5 6 18 91 155 931 2430
2020-09-16 20:30 6.11 148 10100 (2008) 0 (1954) 438 2 2 5 6 18 91 155 931 2430
2020-09-16 20:00 6.11 148 10100 (2008) 0 (1954) 438 2 2 5 6 18 91 155 931 2430
2020-09-16 19:30 6.12 150 10100 (2008) 0 (1954) 438 2 2 5 6 18 91 155 931 2430
2020-09-16 19:00 6.12 150 10100 (2008) 0 (1954) 438 2 2 5 6 18 91 155 931 2430
2020-09-16 18:30 6.13 153 10100 (2008) 0 (1954) 438 2 2 5 6 18 91 155 931 2430
2020-09-16 18:00 6.13 153 10100 (2008) 0 (1954) 438 2 2 5 6 18 91 155 931 2430
2020-09-16 17:30 6.14 155 10100 (2008) 0 (1954) 438 2 2 5 6 18 91 155 931 2430
2020-09-16 17:00 6.14 155 10100 (2008) 0 (1954) 438 2 2 5 6 18 91 155 931 2430
2020-09-16 16:30 6.15 158 10100 (2008) 0 (1954) 438 2 2 5 6 18 91 155 931 2430
2020-09-16 16:00 6.15 158 10100 (2008) 0 (1954) 438 2 2 5 6 18 91 155 931 2430
2020-09-16 15:30 6.16 160 10100 (2008) 0 (1954) 438 2 2 5 6 18 91 155 931 2430
2020-09-16 15:00 6.16 160 10100 (2008) 0 (1954) 438 2 2 5 6 18 91 155 931 2430
2020-09-16 14:30 6.17 163 10100 (2008) 0 (1954) 438 2 2 5 6 18 91 155 931 2430
2020-09-16 14:00 6.17 163 10100 (2008) 0 (1954) 438 2 2 5 6 18 91 155 931 2430
2020-09-16 13:30 6.15 158 10100 (2008) 0 (1954) 438 2 2 5 6 18 91 155 931 2430
2020-09-16 13:00 6.18 166 10100 (2008) 0 (1954) 438 2 2 5 6 18 91 155 931 2430
2020-09-16 12:30 6.19 168 10100 (2008) 0 (1954) 438 2 2 5 6 18 91 155 931 2430
2020-09-16 12:00 6.19 168 10100 (2008) 0 (1954) 438 2 2 5 6 18 91 155 931 2430
2020-09-16 11:30 6.19 168 10100 (2008) 0 (1954) 438 2 2 5 6 18 91 155 931 2430
2020-09-16 11:00 6.21 174 10100 (2008) 0 (1954) 438 2 2 5 6 18 91 155 931 2430
2020-09-16 10:30 6.21 174 10100 (2008) 0 (1954) 438 2 2 5 6 18 91 155 931 2430
2020-09-16 10:00 6.22 176 10100 (2008) 0 (1954) 438 2 2 5 6 18 91 155 931 2430
2020-09-16 09:30 6.20 171 10100 (2008) 0 (1954) 438 2 2 5 6 18 91 155 931 2430
2020-09-16 09:00 6.23 179 10100 (2008) 0 (1954) 438 2 2 5 6 18 91 155 931 2430
2020-09-16 08:30 6.23 179 10100 (2008) 0 (1954) 438 2 2 5 6 18 91 155 931 2430
2020-09-16 08:00 6.24 182 10100 (2008) 0 (1954) 438 2 2 5 6 18 91 155 931 2430
2020-09-16 07:30 6.25 185 10100 (2008) 0 (1954) 438 2 2 5 6 18 91 155 931 2430
2020-09-16 07:00 6.25 185 10100 (2008) 0 (1954) 438 2 2 5 6 18 91 155 931 2430
2020-09-16 06:30 6.25 185 10100 (2008) 0 (1954) 438 2 2 5 6 18 91 155 931 2430
2020-09-16 06:00 6.26 188 10100 (2008) 0 (1954) 438 2 2 5 6 18 91 155 931 2430
2020-09-16 05:30 6.27 191 10100 (2008) 0 (1954) 438 2 2 5 6 18 91 155 931 2430
2020-09-16 05:00 6.27 191 10100 (2008) 0 (1954) 438 2 2 5 6 18 91 155 931 2430
2020-09-16 04:30 6.28 194 10100 (2008) 0 (1954) 438 2 2 5 6 18 91 155 931 2430
2020-09-16 04:00 6.28 194 10100 (2008) 0 (1954) 438 2 2 5 6 18 91 155 931 2430
2020-09-16 03:30 6.29 197 10100 (2008) 0 (1954) 438 2 2 5 6 18 91 155 931 2430
2020-09-16 03:00 6.29 197 10100 (2008) 0 (1954) 438 2 2 5 6 18 91 155 931 2430
2020-09-16 02:30 6.30 200 10100 (2008) 0 (1954) 438 2 2 5 6 18 91 155 931 2430
2020-09-16 02:00 6.30 200 10100 (2008) 0 (1954) 438 2 2 5 6 18 91 155 931 2430
2020-09-16 01:30 6.31 203 10100 (2008) 0 (1954) 438 2 2 5 6 18 91 155 931 2430
2020-09-16 01:00 6.32 206 10100 (2008) 0 (1954) 438 2 2 5 6 18 91 155 931 2430
2020-09-16 00:30 6.33 209 10100 (2008) 0 (1954) 438 2 2 5 6 18 91 155 931 2430
2020-09-16 00:00 6.33 209 10100 (2008) 0 (1954) 438 2 2 5 6 18 91 155 931 2430

A total of 337 rows are displayed for years 1922 through 2018.